Time;durP1;ratioP1;P1;durP2;ratioP2;P2;SDS_P1;SDS_P2;PMS_P1;PMS_P2;Temp;Humidity;BMP_temperature;BMP_pressure;BME280_temperature;BME280_humidity;BME280_pressure;Samples;Min_cycle;Max_cycle;Signal;HPM_P1;HPM_P2
2023/03/22 00:01:16;;;;;;;12.33;9.93;;;10.20;99.90;;;;;;4990500;28;20030;-83
2023/03/22 00:03:42;;;;;;;14.53;9.73;;;10.10;99.90;;;;;;5004864;28;20045;-85
2023/03/22 00:06:08;;;;;;;17.07;10.40;;;10.20;99.90;;;;;;5001950;28;20052;-85
2023/03/22 00:08:34;;;;;;;17.17;11.37;;;10.20;99.90;;;;;;5004289;28;20077;-84
2023/03/22 00:11:00;;;;;;;16.30;10.90;;;10.20;99.90;;;;;;5001576;28;20038;-85
2023/03/22 00:13:26;;;;;;;16.33;11.77;;;10.20;99.90;;;;;;4992408;28;20145;-85
2023/03/22 00:15:53;;;;;;;18.13;12.23;;;10.20;99.90;;;;;;5010429;28;20045;-85
2023/03/22 00:18:19;;;;;;;16.93;11.80;;;10.20;99.90;;;;;;5002829;28;20034;-81
2023/03/22 00:20:50;;;;;;;17.47;11.50;;;10.20;99.90;;;;;;4978472;28;20045;-80
2023/03/22 00:23:15;;;;;;;14.00;10.80;;;10.20;99.90;;;;;;5004114;28;20092;-81
2023/03/22 00:25:45;;;;;;;14.90;11.00;;;10.10;99.90;;;;;;4975893;28;20038;-81
2023/03/22 00:28:12;;;;;;;15.23;11.23;;;10.10;99.90;;;;;;5006871;28;20058;-81
2023/03/22 00:30:38;;;;;;;18.17;10.80;;;10.10;99.90;;;;;;4985887;28;20061;-82
2023/03/22 00:33:04;;;;;;;15.90;10.23;;;10.10;99.90;;;;;;4970919;28;20034;-81
2023/03/22 00:35:30;;;;;;;15.63;10.13;;;10.10;99.90;;;;;;4992985;28;20121;-81
2023/03/22 00:37:56;;;;;;;15.30;9.53;;;10.00;99.90;;;;;;4997260;28;20493;-85
2023/03/22 00:40:22;;;;;;;20.27;9.83;;;10.10;99.90;;;;;;5004170;28;20461;-84
2023/03/22 00:42:47;;;;;;;15.73;9.93;;;10.00;99.90;;;;;;4993672;28;20050;-85
2023/03/22 00:45:13;;;;;;;18.33;9.90;;;10.00;99.90;;;;;;5013192;28;20034;-84
2023/03/22 00:47:39;;;;;;;14.90;10.40;;;10.00;99.90;;;;;;5007931;28;20521;-84
2023/03/22 00:50:07;;;;;;;19.90;10.20;;;10.00;99.90;;;;;;4986410;28;20085;-84
2023/03/22 00:52:33;;;;;;;16.70;9.57;;;10.00;99.90;;;;;;5005246;28;20042;-86
2023/03/22 00:54:58;;;;;;;15.77;10.23;;;9.90;99.90;;;;;;4985303;28;20115;-85
2023/03/22 00:57:24;;;;;;;15.33;10.07;;;9.90;99.90;;;;;;4995651;28;20042;-84
2023/03/22 00:59:52;;;;;;;18.63;10.43;;;9.90;99.90;;;;;;4996972;28;20041;-84
2023/03/22 01:02:18;;;;;;;15.87;10.23;;;9.90;99.90;;;;;;4977485;28;20038;-81
2023/03/22 01:04:45;;;;;;;14.03;9.17;;;9.90;99.90;;;;;;4989384;28;20060;-80
2023/03/22 01:07:20;;;;;;;13.13;9.20;;;9.80;99.90;;;;;;4967025;28;20449;-81
2023/03/22 01:09:50;;;;;;;16.90;9.13;;;9.90;99.90;;;;;;4990196;28;20081;-82
2023/03/22 01:12:17;;;;;;;11.77;7.67;;;9.90;99.90;;;;;;4999453;28;20040;-81
2023/03/22 01:14:43;;;;;;;12.50;8.10;;;9.80;99.90;;;;;;4988687;28;20057;-80
2023/03/22 01:17:09;;;;;;;13.23;8.30;;;9.90;99.90;;;;;;5002622;28;20070;-80
2023/03/22 01:19:36;;;;;;;14.73;8.40;;;9.80;99.90;;;;;;4979258;28;20132;-81
2023/03/22 01:22:03;;;;;;;11.73;7.47;;;9.80;99.90;;;;;;4974429;28;20061;-81
2023/03/22 01:24:29;;;;;;;13.20;8.00;;;9.80;99.90;;;;;;5007327;28;20101;-80
2023/03/22 01:26:55;;;;;;;12.53;8.20;;;9.80;99.90;;;;;;4989955;28;20489;-81
2023/03/22 01:29:21;;;;;;;14.63;8.00;;;9.70;99.90;;;;;;4986467;28;20554;-80
2023/03/22 01:31:47;;;;;;;15.03;7.50;;;9.70;99.90;;;;;;4993287;28;20145;-81
2023/03/22 01:34:12;;;;;;;13.60;8.30;;;9.70;99.90;;;;;;4988003;28;20042;-80
2023/03/22 01:36:38;;;;;;;18.63;9.40;;;9.70;99.90;;;;;;4984502;28;20485;-80
2023/03/22 01:39:04;;;;;;;17.57;9.60;;;9.70;99.90;;;;;;4998454;28;20041;-80
2023/03/22 01:41:33;;;;;;;16.23;10.40;;;9.60;99.90;;;;;;5009580;28;20038;-81
2023/03/22 01:44:14;;;;;;;17.23;9.73;;;9.60;99.90;;;;;;4989452;28;20165;-80
2023/03/22 01:46:42;;;;;;;13.23;9.00;;;9.60;99.90;;;;;;5008055;28;20428;-81
2023/03/22 01:49:13;;;;;;;14.33;9.60;;;9.60;99.90;;;;;;4977121;28;20121;-81
2023/03/22 01:51:40;;;;;;;16.67;9.93;;;9.60;99.90;;;;;;4997880;28;20532;-80
2023/03/22 01:54:11;;;;;;;13.60;8.27;;;9.60;99.90;;;;;;4991164;28;20041;-80
2023/03/22 01:56:40;;;;;;;15.50;8.97;;;9.50;99.90;;;;;;4987653;28;20042;-80
2023/03/22 01:59:08;;;;;;;14.30;9.13;;;9.50;99.90;;;;;;4990750;28;20050;-80
2023/03/22 02:01:35;;;;;;;12.60;8.80;;;9.50;99.90;;;;;;4980921;28;20050;-81
2023/03/22 02:04:19;;;;;;;16.30;8.93;;;9.50;99.90;;;;;;4988355;28;20462;-81
2023/03/22 02:06:46;;;;;;;18.73;9.33;;;9.50;99.90;;;;;;4988834;28;20095;-81
2023/03/22 02:09:13;;;;;;;14.17;8.37;;;9.50;99.90;;;;;;4990615;28;20122;-80
2023/03/22 02:11:43;;;;;;;13.30;8.33;;;9.50;99.90;;;;;;5002730;28;20049;-80
2023/03/22 02:14:24;;;;;;;15.60;8.30;;;9.50;99.90;;;;;;5002816;28;20038;-81
2023/03/22 02:17:05;;;;;;;17.48;7.90;;;9.50;99.90;;;;;;5009800;28;20056;-81
2023/03/22 02:20:14;;;;;;;14.73;8.00;;;9.50;99.90;;;;;;4999319;28;20060;-80
2023/03/22 02:22:45;;;;;;;13.87;8.13;;;9.50;99.90;;;;;;5004795;28;20470;-80
2023/03/22 02:25:39;;;;;;;12.40;7.35;;;9.50;99.90;;;;;;5005921;28;20049;-81
2023/03/22 02:28:24;;;;;;;18.40;7.60;;;9.40;99.90;;;;;;4995121;28;20054;-85
2023/03/22 02:31:14;;;;;;;16.30;7.30;;;9.50;99.90;;;;;;5002246;28;20054;-85
2023/03/22 02:33:52;;;;;;;13.97;7.30;;;9.50;99.90;;;;;;4985922;28;20129;-85
2023/03/22 02:36:33;;;;;;;15.97;7.13;;;9.40;99.90;;;;;;4995673;28;20055;-85
2023/03/22 02:39:05;;;;;;;12.35;6.40;;;9.50;99.90;;;;;;4994130;28;20490;-84
2023/03/22 02:41:38;;;;;;;;;;;9.50;99.90;;;;;;5009929;28;20447;-85
2023/03/22 02:44:12;;;;;;;10.40;5.03;;;9.40;99.90;;;;;;5011256;28;19918;-85
2023/03/22 02:46:54;;;;;;;10.37;5.70;;;9.40;99.90;;;;;;4987083;28;20054;-84
2023/03/22 02:49:31;;;;;;;11.50;5.50;;;9.50;99.90;;;;;;5000514;28;20045;-84
2023/03/22 02:52:10;;;;;;;12.23;5.00;;;9.50;99.90;;;;;;4990723;28;20038;-85
2023/03/22 02:54:51;;;;;;;12.10;5.13;;;9.50;99.90;;;;;;4989404;28;20041;-85
2023/03/22 02:57:32;;;;;;;13.53;4.70;;;9.50;99.90;;;;;;5004986;28;20030;-86
2023/03/22 02:59:59;;;;;;;12.23;5.03;;;9.50;99.90;;;;;;4986437;28;20044;-84
2023/03/22 03:02:28;;;;;;;9.10;4.70;;;9.50;99.90;;;;;;5003931;28;20042;-85
2023/03/22 03:04:58;;;;;;;10.77;5.03;;;9.50;99.90;;;;;;5000291;28;20045;-85
2023/03/22 03:07:26;;;;;;;10.67;3.90;;;9.50;99.90;;;;;;4975810;28;20137;-86
2023/03/22 03:09:53;;;;;;;9.27;4.63;;;9.50;99.90;;;;;;5010768;28;20042;-86
2023/03/22 03:12:26;;;;;;;14.23;4.80;;;9.50;99.90;;;;;;5005271;28;20096;-85
2023/03/22 03:14:53;;;;;;;10.27;4.70;;;9.50;99.90;;;;;;4999596;28;20776;-83
2023/03/22 03:17:36;;;;;;;11.20;5.13;;;9.50;99.90;;;;;;4975595;28;20038;-85
2023/03/22 03:20:17;;;;;;;10.50;4.10;;;9.50;99.90;;;;;;4990932;28;20752;-84
2023/03/22 03:22:46;;;;;;;9.20;4.30;;;9.50;99.90;;;;;;4988596;28;20122;-85
2023/03/22 03:25:42;;;;;;;13.27;4.60;;;9.50;99.90;;;;;;4991407;28;20040;-84
2023/03/22 03:28:37;;;;;;;10.67;4.57;;;9.50;99.90;;;;;;4996347;28;20138;-85
2023/03/22 03:31:08;;;;;;;9.97;4.30;;;9.50;99.90;;;;;;4986944;28;20045;-85
2023/03/22 03:33:39;;;;;;;13.02;4.70;;;9.50;99.90;;;;;;5007612;28;20514;-85
2023/03/22 03:36:09;;;;;;;10.27;4.20;;;9.40;99.90;;;;;;5002388;28;20375;-84
2023/03/22 03:38:41;;;;;;;11.47;4.47;;;9.40;99.90;;;;;;5009181;28;20041;-84
2023/03/22 03:41:15;;;;;;;15.70;4.45;;;9.40;99.90;;;;;;5009727;28;20054;-85
2023/03/22 03:43:42;;;;;;;13.23;4.47;;;9.40;99.90;;;;;;5001705;28;20125;-85
2023/03/22 03:46:09;;;;;;;9.73;4.20;;;9.40;99.90;;;;;;4961644;28;20042;-84
2023/03/22 03:48:37;;;;;;;11.83;4.47;;;9.40;99.90;;;;;;4993627;28;20049;-85
2023/03/22 03:51:03;;;;;;;12.20;4.47;;;9.40;99.90;;;;;;5003554;28;20038;-85
2023/03/22 03:53:30;;;;;;;10.03;4.73;;;9.40;99.90;;;;;;4976599;28;20052;-84
2023/03/22 03:55:56;;;;;;;10.60;4.37;;;9.40;99.90;;;;;;5009092;28;20045;-84
2023/03/22 03:58:21;;;;;;;8.90;4.60;;;9.40;99.90;;;;;;5014211;28;20038;-85
2023/03/22 04:00:48;;;;;;;11.30;5.30;;;9.40;99.90;;;;;;5014211;28;20100;-84
2023/03/22 04:03:14;;;;;;;7.43;4.23;;;9.40;99.90;;;;;;4993207;28;20121;-85
2023/03/22 04:05:40;;;;;;;9.20;4.40;;;9.40;99.90;;;;;;4996146;28;20453;-85
2023/03/22 04:08:07;;;;;;;7.90;4.07;;;9.40;99.90;;;;;;5006385;28;20033;-85
2023/03/22 04:10:33;;;;;;;10.10;4.77;;;9.40;99.90;;;;;;5010985;28;20103;-85
2023/03/22 04:12:58;;;;;;;10.03;5.13;;;9.40;99.90;;;;;;5001755;28;20046;-86
2023/03/22 04:15:24;;;;;;;8.70;4.97;;;9.40;99.90;;;;;;4993677;28;20046;-84
2023/03/22 04:17:52;;;;;;;9.30;4.57;;;9.30;99.90;;;;;;4998233;28;20471;-84
2023/03/22 04:20:18;;;;;;;10.20;5.03;;;9.30;99.90;;;;;;4978505;28;20045;-81
2023/03/22 04:22:45;;;;;;;10.17;4.87;;;9.30;99.90;;;;;;5012487;28;20034;-81
2023/03/22 04:25:13;;;;;;;10.53;5.03;;;9.30;99.90;;;;;;5003938;28;20478;-80
2023/03/22 04:27:40;;;;;;;9.27;5.10;;;9.30;99.90;;;;;;5011138;28;20512;-80
2023/03/22 04:30:09;;;;;;;11.53;5.57;;;9.30;99.90;;;;;;5007406;28;20122;-80
2023/03/22 04:32:36;;;;;;;11.83;5.37;;;9.30;99.90;;;;;;4993308;28;20473;-80
2023/03/22 04:35:01;;;;;;;9.07;5.27;;;9.30;99.90;;;;;;5014786;28;20116;-81
2023/03/22 04:37:27;;;;;;;10.37;5.97;;;9.40;99.90;;;;;;4990601;28;20172;-80
2023/03/22 04:39:53;;;;;;;14.23;6.47;;;9.40;99.90;;;;;;5012275;28;20116;-81
2023/03/22 04:42:19;;;;;;;11.33;6.70;;;9.40;99.90;;;;;;5012103;28;20033;-81
2023/03/22 04:44:45;;;;;;;13.20;7.33;;;9.40;99.90;;;;;;5009602;28;20386;-80
2023/03/22 04:47:11;;;;;;;12.63;8.50;;;9.40;99.90;;;;;;4993859;28;20033;-80
2023/03/22 04:49:37;;;;;;;15.37;8.60;;;9.50;99.90;;;;;;4996893;28;20041;-81
2023/03/22 04:52:02;;;;;;;14.50;8.73;;;9.50;99.90;;;;;;5009535;28;20049;-80
2023/03/22 04:54:28;;;;;;;17.47;9.83;;;9.50;99.90;;;;;;4995201;28;20045;-81
2023/03/22 04:56:54;;;;;;;13.77;9.03;;;9.50;99.90;;;;;;5012167;28;20046;-80
2023/03/22 04:59:23;;;;;;;18.33;10.10;;;9.50;99.90;;;;;;4994020;28;20051;-80
2023/03/22 05:01:50;;;;;;;15.57;10.57;;;9.60;99.90;;;;;;4982480;28;20037;-80
2023/03/22 05:04:18;;;;;;;16.20;10.50;;;9.60;99.90;;;;;;5010032;28;20556;-81
2023/03/22 05:06:45;;;;;;;17.20;12.33;;;9.60;99.90;;;;;;5007500;28;20072;-80
2023/03/22 05:09:12;;;;;;;17.43;11.77;;;9.60;99.90;;;;;;4983228;28;20037;-81
2023/03/22 05:11:39;;;;;;;20.67;12.73;;;9.60;99.90;;;;;;5006289;28;20394;-80
2023/03/22 05:14:06;;;;;;;19.57;11.67;;;9.60;99.90;;;;;;4994939;28;20077;-80
2023/03/22 05:16:32;;;;;;;20.83;12.87;;;9.60;99.90;;;;;;5011925;28;20370;-80
2023/03/22 05:18:57;;;;;;;19.07;12.37;;;9.60;99.90;;;;;;5009008;28;20040;-81
2023/03/22 05:21:27;;;;;;;20.07;12.80;;;9.60;99.90;;;;;;4994990;28;20048;-80
2023/03/22 05:23:57;;;;;;;16.27;12.30;;;9.70;99.90;;;;;;4992126;28;20065;-80
2023/03/22 05:26:25;;;;;;;20.93;13.30;;;9.60;99.90;;;;;;5004469;28;20041;-80
2023/03/22 05:28:52;;;;;;;21.20;13.77;;;9.60;99.90;;;;;;4992325;28;20042;-81
2023/03/22 05:31:20;;;;;;;18.97;13.63;;;9.60;99.90;;;;;;5007256;28;20085;-80
2023/03/22 05:33:50;;;;;;;21.97;13.00;;;9.60;99.90;;;;;;4991788;28;20068;-80
2023/03/22 05:36:17;;;;;;;20.10;14.37;;;9.60;99.90;;;;;;5010108;28;20038;-85
2023/03/22 05:38:46;;;;;;;22.80;14.57;;;9.60;99.90;;;;;;5013544;28;20078;-85
2023/03/22 05:41:13;;;;;;;19.23;14.13;;;9.70;99.90;;;;;;5010157;28;20033;-85
2023/03/22 05:43:39;;;;;;;21.53;14.60;;;9.60;99.90;;;;;;4998689;28;20049;-86
2023/03/22 05:46:06;;;;;;;21.90;14.37;;;9.60;99.90;;;;;;4993374;28;20049;-84
2023/03/22 05:48:32;;;;;;;19.37;14.30;;;9.60;99.90;;;;;;5009132;28;20038;-85
2023/03/22 05:50:58;;;;;;;21.13;14.57;;;9.60;99.90;;;;;;5007283;28;20433;-85
2023/03/22 05:53:23;;;;;;;21.13;14.27;;;9.60;99.90;;;;;;5006828;28;20038;-85
2023/03/22 05:55:49;;;;;;;21.30;14.47;;;9.70;99.90;;;;;;4989003;28;20087;-85
2023/03/22 05:58:17;;;;;;;21.17;14.27;;;9.60;99.90;;;;;;4996596;28;20453;-84
2023/03/22 06:00:44;;;;;;;20.93;14.07;;;9.60;99.90;;;;;;5007557;28;20385;-84
2023/03/22 06:03:10;;;;;;;22.93;14.87;;;9.60;99.90;;;;;;5009582;28;20037;-85
2023/03/22 06:05:36;;;;;;;21.10;14.20;;;9.60;99.90;;;;;;4986913;28;20048;-85
2023/03/22 06:08:02;;;;;;;19.47;14.40;;;9.70;99.90;;;;;;4997807;28;20498;-85
2023/03/22 06:10:29;;;;;;;21.77;14.80;;;9.60;99.90;;;;;;5000379;28;20124;-84
2023/03/22 06:12:55;;;;;;;22.47;14.53;;;9.60;99.90;;;;;;5012837;28;20497;-86
2023/03/22 06:15:20;;;;;;;21.17;13.77;;;9.70;99.90;;;;;;4973917;28;20083;-84
2023/03/22 06:17:46;;;;;;;19.77;13.57;;;9.70;99.90;;;;;;4989024;28;20038;-85
2023/03/22 06:20:14;;;;;;;21.67;13.80;;;9.70;99.90;;;;;;5008617;28;20041;-84
2023/03/22 06:22:40;;;;;;;25.97;14.43;;;9.70;99.90;;;;;;5014233;28;20179;-86
2023/03/22 06:25:07;;;;;;;20.93;14.30;;;9.70;99.90;;;;;;5009485;28;20034;-85
2023/03/22 06:27:36;;;;;;;18.60;13.07;;;9.70;99.90;;;;;;4973545;28;20052;-85
2023/03/22 06:30:02;;;;;;;20.03;13.80;;;9.70;99.90;;;;;;4995031;28;20053;-86
2023/03/22 06:32:28;;;;;;;20.30;13.77;;;9.70;99.90;;;;;;4994203;28;20057;-86
2023/03/22 06:34:54;;;;;;;19.90;13.97;;;9.80;99.90;;;;;;5011552;28;20041;-86
2023/03/22 06:37:21;;;;;;;21.83;13.77;;;9.80;99.90;;;;;;5014074;28;20044;-85
2023/03/22 06:39:48;;;;;;;19.83;13.03;;;9.80;99.90;;;;;;4972106;28;20384;-84
2023/03/22 06:42:14;;;;;;;18.07;12.87;;;9.90;99.90;;;;;;4994856;28;20037;-86
2023/03/22 06:44:42;;;;;;;20.83;12.53;;;9.90;99.90;;;;;;4988163;28;20048;-87
2023/03/22 06:47:09;;;;;;;19.70;12.77;;;10.00;99.90;;;;;;4992092;28;20048;-85
2023/03/22 06:49:35;;;;;;;20.90;13.60;;;10.00;99.90;;;;;;5009580;28;20393;-88
2023/03/22 06:52:00;;;;;;;20.07;12.80;;;10.10;99.90;;;;;;4977326;28;20127;-86
2023/03/22 06:54:26;;;;;;;16.77;11.33;;;10.20;99.90;;;;;;4999149;28;20052;-85
2023/03/22 06:56:52;;;;;;;15.93;11.20;;;10.20;99.90;;;;;;5010149;28;20436;-85
2023/03/22 06:59:18;;;;;;;16.17;12.13;;;10.20;99.90;;;;;;4977273;28;20078;-85
2023/03/22 07:01:43;;;;;;;15.63;11.80;;;10.20;99.90;;;;;;4981252;28;20104;-85
2023/03/22 07:04:09;;;;;;;17.97;11.27;;;10.30;99.90;;;;;;4988889;28;20501;-86
2023/03/22 07:06:35;;;;;;;18.70;11.77;;;10.30;99.90;;;;;;4997918;28;20034;-87
2023/03/22 07:09:01;;;;;;;16.73;10.80;;;10.30;99.90;;;;;;5009378;28;20080;-86
2023/03/22 07:11:27;;;;;;;15.80;10.57;;;10.40;99.90;;;;;;4985862;28;20046;-86
2023/03/22 07:13:53;;;;;;;16.93;10.50;;;10.40;99.90;;;;;;4994554;28;20076;-87
2023/03/22 07:16:19;;;;;;;15.33;10.30;;;10.40;99.90;;;;;;4996997;28;20034;-87
2023/03/22 07:18:45;;;;;;;16.97;9.97;;;10.40;99.90;;;;;;4992874;28;20096;-86
2023/03/22 07:21:11;;;;;;;16.67;9.97;;;10.50;99.90;;;;;;5011484;28;20603;-86
2023/03/22 07:23:37;;;;;;;16.77;10.43;;;10.50;99.90;;;;;;5006132;28;20041;-85
2023/03/22 07:26:03;;;;;;;15.70;10.00;;;10.50;99.90;;;;;;4988331;28;20052;-86
2023/03/22 07:28:29;;;;;;;13.77;9.07;;;10.60;99.90;;;;;;4992029;28;20512;-86
2023/03/22 07:31:04;;;;;;;15.77;9.30;;;10.60;99.90;;;;;;5011089;28;20128;-85
2023/03/22 07:33:30;;;;;;;13.90;9.87;;;10.60;99.90;;;;;;5006852;28;20045;-86
2023/03/22 07:35:55;;;;;;;14.53;9.00;;;10.60;99.90;;;;;;4989451;28;20382;-85
2023/03/22 07:38:21;;;;;;;14.53;8.57;;;10.60;99.90;;;;;;5013455;28;20037;-85
2023/03/22 07:40:49;;;;;;;13.80;8.50;;;10.60;99.90;;;;;;4983064;28;20041;-84
2023/03/22 07:43:15;;;;;;;14.53;8.80;;;10.70;99.90;;;;;;5001592;28;20048;-85
2023/03/22 07:45:40;;;;;;;12.60;8.90;;;10.70;99.90;;;;;;5011085;28;20041;-85
2023/03/22 07:48:10;;;;;;;13.23;8.50;;;10.80;99.90;;;;;;4994593;28;20045;-86
2023/03/22 07:50:36;;;;;;;13.70;8.30;;;10.80;99.90;;;;;;4989326;28;20047;-85
2023/03/22 07:53:02;;;;;;;12.00;8.23;;;10.90;99.90;;;;;;4972706;28;20156;-86
2023/03/22 07:55:28;;;;;;;13.37;7.97;;;10.90;99.90;;;;;;5011401;28;20053;-86
2023/03/22 07:57:55;;;;;;;14.17;8.17;;;10.90;99.90;;;;;;4984930;28;21177;-86
2023/03/22 08:00:21;;;;;;;13.17;7.53;;;10.90;99.90;;;;;;5010117;28;20469;-84
2023/03/22 08:02:46;;;;;;;11.60;7.10;;;10.90;99.90;;;;;;4984875;28;20432;-84
2023/03/22 08:05:12;;;;;;;17.17;7.30;;;11.00;99.90;;;;;;4996963;28;20041;-84
2023/03/22 08:07:38;;;;;;;13.03;7.50;;;10.90;99.90;;;;;;4997308;28;20136;-85
2023/03/22 08:10:04;;;;;;;11.53;7.50;;;10.80;99.90;;;;;;4980797;28;20458;-85
2023/03/22 08:12:31;;;;;;;13.20;6.90;;;10.80;99.90;;;;;;4993492;28;20042;-85
2023/03/22 08:14:57;;;;;;;13.63;7.53;;;10.80;99.90;;;;;;4974715;28;20033;-85
2023/03/22 08:17:24;;;;;;;9.97;6.90;;;10.70;99.90;;;;;;4998911;28;20030;-84
2023/03/22 08:19:53;;;;;;;10.60;6.60;;;10.70;99.90;;;;;;5005194;28;20041;-86
2023/03/22 08:22:23;;;;;;;10.73;7.00;;;10.70;99.90;;;;;;4984024;28;20076;-85
2023/03/22 08:24:50;;;;;;;12.57;6.80;;;10.70;99.90;;;;;;5011356;28;20107;-85
2023/03/22 08:27:17;;;;;;;13.83;7.57;;;10.70;99.90;;;;;;4975404;28;20337;-85
2023/03/22 08:29:44;;;;;;;11.43;7.23;;;10.70;99.90;;;;;;5012396;28;20091;-86
2023/03/22 08:32:10;;;;;;;14.23;7.07;;;10.80;99.90;;;;;;4994591;28;20412;-86
2023/03/22 08:34:37;;;;;;;13.90;6.90;;;10.90;99.90;;;;;;4996844;28;20045;-85
2023/03/22 08:37:05;;;;;;;12.20;6.70;;;11.00;99.90;;;;;;4964346;28;20095;-83
2023/03/22 08:39:31;;;;;;;12.20;6.63;;;11.00;99.90;;;;;;4983333;28;20034;-84
2023/03/22 08:41:57;;;;;;;12.70;7.33;;;11.00;99.90;;;;;;4972210;28;20034;-84
2023/03/22 08:44:23;;;;;;;11.53;6.80;;;11.00;99.90;;;;;;5000714;28;20409;-85
2023/03/22 08:46:49;;;;;;;11.52;6.30;;;11.00;99.90;;;;;;5009753;28;20033;-85
2023/03/22 08:49:15;;;;;;;10.67;6.40;;;11.00;99.90;;;;;;4984460;28;20374;-85
2023/03/22 08:51:41;;;;;;;11.83;6.63;;;11.00;99.90;;;;;;4991287;28;20046;-85
2023/03/22 08:54:07;;;;;;;14.33;6.50;;;11.00;99.90;;;;;;4985742;28;20095;-86
2023/03/22 08:56:36;;;;;;;11.10;6.23;;;11.00;99.90;;;;;;4984066;28;20048;-86
2023/03/22 08:59:07;;;;;;;11.33;6.47;;;11.00;99.90;;;;;;5000997;28;20596;-85
2023/03/22 09:01:34;;;;;;;10.07;6.10;;;11.10;99.90;;;;;;4987778;28;20600;-86
2023/03/22 09:04:04;;;;;;;10.57;6.17;;;11.10;99.90;;;;;;4987680;28;20056;-85
2023/03/22 09:06:32;;;;;;;13.83;6.27;;;11.30;99.90;;;;;;4992576;28;20532;-83
2023/03/22 09:08:59;;;;;;;9.70;6.23;;;11.30;99.90;;;;;;4978463;28;20042;-85
2023/03/22 09:11:25;;;;;;;10.07;6.17;;;11.40;99.90;;;;;;5012585;28;20551;-83
2023/03/22 09:13:51;;;;;;;10.73;5.93;;;11.40;99.90;;;;;;4971430;28;20046;-84
2023/03/22 09:16:17;;;;;;;7.90;5.30;;;11.50;99.90;;;;;;5013443;28;20049;-86
2023/03/22 09:18:44;;;;;;;12.63;5.50;;;11.50;99.90;;;;;;5003946;28;20042;-84
2023/03/22 09:21:13;;;;;;;10.48;5.47;;;11.50;99.90;;;;;;5007672;28;20045;-86
2023/03/22 09:23:40;;;;;;;10.48;5.30;;;11.60;99.90;;;;;;5013382;28;20072;-84
2023/03/22 09:26:09;;;;;;;10.90;5.72;;;11.60;99.90;;;;;;5006344;28;20045;-85
2023/03/22 09:28:36;;;;;;;11.02;5.78;;;11.60;99.90;;;;;;5009791;28;20133;-85
2023/03/22 09:31:05;;;;;;;11.02;5.63;;;11.60;99.90;;;;;;5011178;28;20397;-85
2023/03/22 09:33:31;;;;;;;16.27;5.63;;;11.70;99.90;;;;;;5013432;28;20090;-85
2023/03/22 09:35:58;;;;;;;11.93;5.40;;;11.70;99.90;;;;;;4973895;28;20045;-83
2023/03/22 09:38:26;;;;;;;10.83;5.70;;;11.60;99.90;;;;;;4976567;28;20042;-85
2023/03/22 09:41:02;;;;;;;9.73;4.90;;;11.70;99.90;;;;;;4979158;28;20077;-86
2023/03/22 09:43:41;;;;;;;11.48;5.65;;;11.70;99.90;;;;;;4992107;28;20056;-85
2023/03/22 09:46:13;;;;;;;8.07;5.07;;;11.70;99.90;;;;;;4993552;28;20078;-85
2023/03/22 09:48:41;;;;;;;9.65;5.05;;;11.70;99.90;;;;;;5000346;28;20127;-85
2023/03/22 09:51:25;;;;;;;8.80;5.00;;;11.70;99.90;;;;;;4988013;28;20083;-85
2023/03/22 09:53:53;;;;;;;8.55;5.07;;;11.80;99.90;;;;;;4982472;28;20397;-84
2023/03/22 09:56:26;;;;;;;8.35;4.90;;;11.70;99.90;;;;;;4985084;28;20492;-85
2023/03/22 09:58:54;;;;;;;10.60;5.05;;;11.80;99.90;;;;;;4985127;28;20048;-82
2023/03/22 10:01:34;;;;;;;9.05;4.50;;;11.70;99.90;;;;;;5003930;28;20581;-87
2023/03/22 10:04:37;;;;;;;11.10;4.85;;;11.70;99.90;;;;;;5000107;28;20049;-85
2023/03/22 10:07:25;;;;;;;8.10;4.72;;;11.70;99.90;;;;;;5006017;28;20045;-84
2023/03/22 10:10:06;;;;;;;9.80;5.38;;;11.60;99.90;;;;;;5003551;28;20053;-84
2023/03/22 10:12:51;;;;;;;13.70;4.97;;;11.50;99.90;;;;;;5000238;28;20037;-85
2023/03/22 10:15:25;;;;;;;11.38;5.10;;;11.50;99.90;;;;;;4979432;28;20081;-84
2023/03/22 10:17:54;;;;;;;7.93;4.60;;;11.40;99.90;;;;;;4983901;28;20038;-85
2023/03/22 10:20:43;;;;;;;8.00;4.75;;;11.40;99.90;;;;;;4996077;28;20069;-86
2023/03/22 10:23:15;;;;;;;13.82;4.90;;;11.40;99.90;;;;;;4970217;28;20129;-82
2023/03/22 10:25:42;;;;;;;8.88;4.88;;;11.30;99.90;;;;;;4984345;28;20148;-82
2023/03/22 10:28:29;;;;;;;10.05;4.60;;;11.30;99.90;;;;;;4983618;28;20136;-85
2023/03/22 10:30:58;;;;;;;10.50;4.40;;;11.30;99.90;;;;;;5003103;28;20052;-84
2023/03/22 10:33:33;;;;;;;8.35;4.53;;;11.20;99.90;;;;;;5002225;28;20432;-85
2023/03/22 10:36:01;;;;;;;8.77;4.85;;;11.20;99.90;;;;;;5001356;28;20045;-86
2023/03/22 10:38:28;;;;;;;7.77;4.63;;;11.20;99.90;;;;;;4985872;28;20037;-84
2023/03/22 10:40:57;;;;;;;10.07;5.68;;;11.20;99.90;;;;;;5000244;28;20041;-83
2023/03/22 10:43:32;;;;;;;9.77;5.00;;;11.10;99.90;;;;;;4984624;28;20046;-83
2023/03/22 10:46:00;;;;;;;10.25;5.10;;;11.10;99.90;;;;;;4998678;28;20053;-84
2023/03/22 10:48:31;;;;;;;8.32;5.10;;;11.00;99.90;;;;;;4999803;28;20447;-84
2023/03/22 10:50:59;;;;;;;9.02;5.30;;;11.00;99.90;;;;;;4983065;28;20042;-84
2023/03/22 10:53:27;;;;;;;8.57;5.55;;;11.00;99.90;;;;;;4983084;28;20176;-85
2023/03/22 10:55:53;;;;;;;11.00;5.90;;;11.00;99.90;;;;;;5016632;28;20087;-85
2023/03/22 10:58:21;;;;;;;11.38;5.25;;;11.00;99.90;;;;;;4977039;28;20062;-84
2023/03/22 11:00:49;;;;;;;12.00;5.93;;;11.00;99.90;;;;;;5019012;28;20037;-84
2023/03/22 11:03:33;;;;;;;9.23;5.90;;;11.00;99.90;;;;;;4999871;28;20044;-85
2023/03/22 11:06:13;;;;;;;10.68;5.50;;;11.00;99.90;;;;;;5000112;28;20041;-84
2023/03/22 11:08:51;;;;;;;9.50;5.90;;;11.00;99.90;;;;;;5001708;28;20430;-84
2023/03/22 11:11:22;;;;;;;11.97;6.17;;;11.00;99.90;;;;;;4983630;28;20485;-85
2023/03/22 11:13:55;;;;;;;9.75;6.00;;;11.00;99.90;;;;;;4983053;28;20436;-84
2023/03/22 11:16:25;;;;;;;13.43;5.90;;;11.00;99.90;;;;;;5018955;28;20041;-84
2023/03/22 11:18:51;;;;;;;8.73;4.90;;;11.10;99.90;;;;;;4999778;28;20147;-84
2023/03/22 11:21:19;;;;;;;9.03;5.03;;;11.00;99.90;;;;;;4962606;28;20037;-84
2023/03/22 11:24:00;;;;;;;8.03;4.87;;;11.00;99.90;;;;;;4984204;28;20044;-85
2023/03/22 11:26:33;;;;;;;11.55;4.82;;;11.00;99.90;;;;;;4995430;28;20033;-85
2023/03/22 11:29:05;;;;;;;9.87;4.90;;;11.00;99.90;;;;;;4999655;28;20050;-83
2023/03/22 11:31:58;;;;;;;11.07;5.07;;;11.00;99.90;;;;;;4981331;28;20135;-84
2023/03/22 11:34:30;;;;;;;9.47;4.70;;;10.90;99.90;;;;;;4982093;28;20041;-84
2023/03/22 11:36:59;;;;;;;10.40;4.45;;;11.00;99.90;;;;;;4984389;28;20042;-84
2023/03/22 11:39:27;;;;;;;8.80;4.30;;;11.00;99.90;;;;;;4984115;28;20050;-83
2023/03/22 11:42:00;;;;;;;7.30;4.70;;;11.00;99.90;;;;;;4967099;28;20037;-84
2023/03/22 11:44:30;;;;;;;9.90;4.57;;;11.00;99.90;;;;;;4996125;28;20056;-85
2023/03/22 11:46:59;;;;;;;6.70;4.37;;;11.00;99.90;;;;;;4996766;28;20047;-85
2023/03/22 11:49:51;;;;;;;6.00;4.82;;;11.00;99.90;;;;;;4978752;28;20041;-84
2023/03/22 11:52:26;;;;;;;6.47;4.10;;;11.10;99.90;;;;;;4981779;28;20061;-86
2023/03/22 11:54:53;;;;;;;7.47;4.10;;;11.10;99.90;;;;;;4983709;28;20504;-86
2023/03/22 11:57:29;;;;;;;8.68;4.22;;;11.10;99.90;;;;;;4987123;28;20052;-85
2023/03/22 12:00:10;;;;;;;7.22;4.15;;;11.10;99.90;;;;;;4982272;28;20046;-85
2023/03/22 12:03:01;;;;;;;7.45;4.40;;;11.10;99.90;;;;;;4981374;28;20440;-86
2023/03/22 12:05:32;;;;;;;6.73;3.87;;;11.10;99.90;;;;;;4981442;28;20705;-82
2023/03/22 12:08:15;;;;;;;8.25;4.35;;;11.10;99.90;;;;;;4985221;28;20037;-84
2023/03/22 12:10:43;;;;;;;9.40;4.13;;;11.10;99.90;;;;;;4997989;28;20041;-83
2023/03/22 12:13:21;;;;;;;10.02;4.07;;;11.10;99.90;;;;;;4983266;28;20049;-83
2023/03/22 12:15:55;;;;;;;11.25;4.95;;;11.10;99.90;;;;;;5000033;28;20038;-84
2023/03/22 12:18:50;;;;;;;10.43;4.82;;;11.10;99.90;;;;;;4981107;28;20099;-83
2023/03/22 12:21:16;;;;;;;8.90;4.73;;;11.10;99.90;;;;;;4978578;28;20062;-85
2023/03/22 12:23:45;;;;;;;9.20;5.10;;;11.00;99.90;;;;;;5000077;28;20061;-84
2023/03/22 12:26:19;;;;;;;9.35;4.70;;;11.00;99.90;;;;;;4957358;28;20147;-84
2023/03/22 12:29:13;;;;;;;8.83;5.33;;;11.00;99.90;;;;;;4988425;28;20061;-85
2023/03/22 12:31:55;;;;;;;11.70;4.95;;;11.10;99.90;;;;;;5017864;28;20037;-83
2023/03/22 12:34:27;;;;;;;9.65;5.55;;;11.00;99.90;;;;;;4989203;28;20440;-85
2023/03/22 12:36:55;;;;;;;;;;;11.00;99.90;;;;;;5004743;28;20041;-85
2023/03/22 12:39:30;;;;;;;10.80;5.13;;;10.90;99.90;;;;;;4984857;28;19925;-85
2023/03/22 12:42:02;;;;;;;8.30;5.07;;;11.00;99.90;;;;;;4985680;28;20133;-83
2023/03/22 12:44:38;;;;;;;11.10;5.38;;;11.00;99.90;;;;;;4983341;28;20092;-84
2023/03/22 12:47:14;;;;;;;8.30;4.67;;;11.00;99.90;;;;;;4985348;28;20136;-84
2023/03/22 12:49:47;;;;;;;9.27;5.13;;;11.00;99.90;;;;;;4987033;28;20061;-85
2023/03/22 12:52:36;;;;;;;6.43;4.90;;;11.00;99.90;;;;;;5002764;28;21932;-85
2023/03/22 12:55:03;;;;;;;9.97;5.03;;;11.00;99.90;;;;;;4977618;28;20100;-86